Time,TemperatureF,DewpointF,PressureIn,WindDirection,WindDirectionDegrees,WindSpeedMPH,WindSpeedGustMPH,Humidity,HourlyPrecipIn,Conditions,Clouds,dailyrainin,SoftwareType,DateUTC
2013-03-27 00:02:00,31.1,10.2,23.42,WNW,294,0.0,0.0,41,0.00,,---,0.00,VWS V14.00,2013-03-27 07:02:00,
2013-03-27 00:07:00,30.9,10.0,23.42,WNW,294,0.0,0.0,41,0.00,,---,0.00,VWS V14.00,2013-03-27 07:07:00,
2013-03-27 00:12:00,30.7,9.8,23.42,WNW,294,0.0,0.0,41,0.00,,---,0.00,VWS V14.00,2013-03-27 07:12:00,
2013-03-27 00:17:00,30.7,9.8,23.42,WNW,294,0.0,0.0,41,0.00,,---,0.00,VWS V14.00,2013-03-27 07:17:00,
2013-03-27 00:22:00,30.6,9.7,23.42,WNW,294,0.0,0.0,41,0.00,,---,0.00,VWS V14.00,2013-03-27 07:22:00,
2013-03-27 00:27:00,30.4,9.5,23.42,WNW,294,0.0,0.0,41,0.00,,---,0.00,VWS V14.00,2013-03-27 07:27:00,
2013-03-27 00:32:00,30.2,9.4,23.42,WNW,294,0.0,0.0,41,0.00,,---,0.00,VWS V14.00,2013-03-27 07:32:00,
2013-03-27 00:37:00,30.0,9.2,23.42,WNW,294,0.0,0.0,41,0.00,,---,0.00,VWS V14.00,2013-03-27 07:37:00,
2013-03-27 00:42:00,29.8,9.0,23.42,WNW,294,0.0,0.0,41,0.00,,---,0.00,VWS V14.00,2013-03-27 07:42:00,
2013-03-27 00:47:00,29.7,8.9,23.42,WNW,294,0.0,0.0,41,0.00,,---,0.00,VWS V14.00,2013-03-27 07:47:00,
2013-03-27 00:53:00,29.5,8.7,23.42,WNW,294,0.0,0.0,41,0.00,,---,0.00,VWS V14.00,2013-03-27 07:53:00,
2013-03-27 00:58:00,29.5,8.7,23.42,WNW,294,0.0,0.0,41,0.00,,---,0.00,VWS V14.00,2013-03-27 07:58:00,
2013-03-27 01:03:00,29.5,8.7,23.42,WNW,294,0.0,0.0,41,0.00,,---,0.00,VWS V14.00,2013-03-27 08:03:00,
2013-03-27 01:08:00,29.3,8.5,23.42,WNW,294,0.0,0.0,41,0.00,,---,0.00,VWS V14.00,2013-03-27 08:08:00,
2013-03-27 01:13:00,29.1,8.4,23.42,WNW,294,0.0,0.0,41,0.00,,---,0.00,VWS V14.00,2013-03-27 08:13:00,
2013-03-27 01:19:00,28.9,8.2,23.42,WNW,294,0.0,0.0,41,0.00,,---,0.00,VWS V14.00,2013-03-27 08:19:00,
2013-03-27 01:24:00,28.8,8.0,23.42,WNW,294,0.0,0.0,41,0.00,,---,0.00,VWS V14.00,2013-03-27 08:24:00,
2013-03-27 01:29:00,28.8,8.0,23.42,WNW,294,0.0,0.0,41,0.00,,---,0.00,VWS V14.00,2013-03-27 08:29:00,
2013-03-27 01:34:00,28.6,7.9,23.42,WNW,294,0.0,0.0,41,0.00,,---,0.00,VWS V14.00,2013-03-27 08:34:00,
2013-03-27 01:39:00,28.6,7.9,23.42,WNW,294,0.0,0.0,41,0.00,,---,0.00,VWS V14.00,2013-03-27 08:39:00,
2013-03-27 01:44:00,28.6,7.9,23.42,WNW,294,0.0,0.0,41,0.00,,---,0.00,VWS V14.00,2013-03-27 08:44:00,
2013-03-27 01:49:00,28.4,7.7,23.42,WNW,294,0.0,0.0,41,0.00,,---,0.00,VWS V14.00,2013-03-27 08:49:00,
2013-03-27 01:55:00,28.2,7.6,23.42,WNW,294,0.0,0.0,41,0.00,,---,0.00,VWS V14.00,2013-03-27 08:55:00,
2013-03-27 02:00:00,28.2,7.6,23.42,WNW,294,0.0,0.0,41,0.00,,---,0.00,VWS V14.00,2013-03-27 09:00:00,
2013-03-27 02:05:00,28.0,7.4,23.42,WNW,294,0.0,0.0,41,0.00,,---,0.00,VWS V14.00,2013-03-27 09:05:00,
2013-03-27 02:10:00,27.9,7.2,23.42,WNW,294,0.0,0.0,41,0.00,,---,0.00,VWS V14.00,2013-03-27 09:10:00,
2013-03-27 02:15:00,27.9,7.2,23.42,WNW,294,0.0,0.0,41,0.00,,---,0.00,VWS V14.00,2013-03-27 09:15:00,
2013-03-27 02:20:00,27.7,7.1,23.42,WNW,294,0.0,0.0,41,0.00,,---,0.00,VWS V14.00,2013-03-27 09:20:00,
2013-03-27 02:25:00,27.5,6.9,23.42,WNW,294,0.0,0.0,41,0.00,,---,0.00,VWS V14.00,2013-03-27 09:25:00,
2013-03-27 02:30:00,27.3,6.7,23.42,WNW,294,0.0,0.0,41,0.00,,---,0.00,VWS V14.00,2013-03-27 09:30:00,
2013-03-27 02:35:00,27.3,6.7,23.42,WNW,294,0.0,0.0,41,0.00,,---,0.00,VWS V14.00,2013-03-27 09:35:00,
2013-03-27 02:40:00,27.3,6.7,23.42,WNW,294,0.0,0.0,41,0.00,,---,0.00,VWS V14.00,2013-03-27 09:40:00,
2013-03-27 02:46:00,27.1,6.6,23.39,WNW,294,0.0,0.0,41,0.00,,---,0.00,VWS V14.00,2013-03-27 09:46:00,
2013-03-27 02:51:00,27.1,6.6,23.39,WNW,294,0.0,0.0,41,0.00,,---,0.00,VWS V14.00,2013-03-27 09:51:00,
2013-03-27 02:56:00,27.1,6.6,23.39,WNW,294,0.0,0.0,41,0.00,,---,0.00,VWS V14.00,2013-03-27 09:56:00,
2013-03-27 03:01:00,27.0,6.4,23.39,WNW,294,0.0,0.0,41,0.00,,---,0.00,VWS V14.00,2013-03-27 10:01:00,
2013-03-27 03:06:00,27.0,6.4,23.39,WNW,294,0.0,0.0,41,0.00,,---,0.00,VWS V14.00,2013-03-27 10:06:00,
2013-03-27 03:12:00,26.8,6.2,23.39,WNW,294,0.0,0.0,41,0.00,,---,0.00,VWS V14.00,2013-03-27 10:12:00,
2013-03-27 03:17:00,26.8,6.2,23.39,WNW,294,0.0,0.0,41,0.00,,---,0.00,VWS V14.00,2013-03-27 10:17:00,
2013-03-27 03:22:00,26.8,6.2,23.39,WNW,294,0.0,0.0,41,0.00,,---,0.00,VWS V14.00,2013-03-27 10:22:00,
2013-03-27 03:27:00,26.6,6.6,23.39,WNW,294,0.0,0.0,42,0.00,,---,0.00,VWS V14.00,2013-03-27 10:27:00,
2013-03-27 03:32:00,26.4,6.4,23.39,WNW,294,0.0,0.0,42,0.00,,---,0.00,VWS V14.00,2013-03-27 10:32:00,
2013-03-27 03:37:00,26.4,6.4,23.39,WNW,294,0.0,0.0,42,0.00,,---,0.00,VWS V14.00,2013-03-27 10:37:00,
2013-03-27 03:42:00,26.2,6.3,23.39,WNW,294,0.0,0.0,42,0.00,,---,0.00,VWS V14.00,2013-03-27 10:42:00,
2013-03-27 03:48:00,26.2,6.3,23.39,WNW,294,0.0,0.0,42,0.00,,---,0.00,VWS V14.00,2013-03-27 10:48:00,
2013-03-27 03:53:00,26.2,6.3,23.39,WNW,294,0.0,0.0,42,0.00,,---,0.00,VWS V14.00,2013-03-27 10:53:00,
2013-03-27 03:58:00,26.1,6.1,23.39,WNW,294,0.0,0.0,42,0.00,,---,0.00,VWS V14.00,2013-03-27 10:58:00,
2013-03-27 04:03:00,26.1,6.1,23.39,WNW,294,0.0,0.0,42,0.00,,---,0.00,VWS V14.00,2013-03-27 11:03:00,
2013-03-27 04:08:00,26.1,6.1,23.39,WNW,294,0.0,0.0,42,0.00,,---,0.00,VWS V14.00,2013-03-27 11:08:00,
2013-03-27 04:13:00,25.9,6.0,23.39,WNW,294,0.0,0.0,42,0.00,,---,0.00,VWS V14.00,2013-03-27 11:13:00,
2013-03-27 04:18:00,25.7,5.8,23.39,WNW,294,0.0,0.0,42,0.00,,---,0.00,VWS V14.00,2013-03-27 11:18:00,
2013-03-27 04:24:00,25.5,5.6,23.39,WNW,294,0.0,0.0,42,0.00,,---,0.00,VWS V14.00,2013-03-27 11:24:00,
2013-03-27 04:29:00,25.5,5.6,23.39,WNW,294,0.0,0.0,42,0.00,,---,0.00,VWS V14.00,2013-03-27 11:29:00,
2013-03-27 04:34:00,25.3,5.5,23.39,WNW,294,0.0,0.0,42,0.00,,---,0.00,VWS V14.00,2013-03-27 11:34:00,
2013-03-27 04:39:00,25.3,5.5,23.39,WNW,294,0.0,0.0,42,0.00,,---,0.00,VWS V14.00,2013-03-27 11:39:00,
2013-03-27 04:45:00,25.2,5.3,23.39,WNW,294,0.0,0.0,42,0.00,,---,0.00,VWS V14.00,2013-03-27 11:45:00,
2013-03-27 04:50:00,25.2,5.3,23.39,WNW,294,0.0,0.0,42,0.00,,---,0.00,VWS V14.00,2013-03-27 11:50:00,
2013-03-27 04:55:00,25.2,5.3,23.39,WNW,294,0.0,0.0,42,0.00,,---,0.00,VWS V14.00,2013-03-27 11:55:00,
2013-03-27 05:00:00,25.0,5.1,23.42,WNW,294,0.0,0.0,42,0.00,,---,0.00,VWS V14.00,2013-03-27 12:00:00,
2013-03-27 05:05:00,25.0,5.1,23.42,WNW,294,0.0,0.0,42,0.00,,---,0.00,VWS V14.00,2013-03-27 12:05:00,
2013-03-27 05:10:00,24.8,5.0,23.42,WNW,294,0.0,0.0,42,0.00,,---,0.00,VWS V14.00,2013-03-27 12:10:00,
2013-03-27 05:16:00,24.6,4.8,23.42,WNW,294,0.0,0.0,42,0.00,,---,0.00,VWS V14.00,2013-03-27 12:16:00,
2013-03-27 05:21:00,24.4,4.7,23.42,WNW,294,0.0,0.0,42,0.00,,---,0.00,VWS V14.00,2013-03-27 12:21:00,
2013-03-27 05:26:00,24.4,4.7,23.42,WNW,294,0.0,0.0,42,0.00,,---,0.00,VWS V14.00,2013-03-27 12:26:00,
2013-03-27 05:32:00,24.3,4.5,23.42,WNW,294,0.0,0.0,42,0.00,,---,0.00,VWS V14.00,2013-03-27 12:32:00,
2013-03-27 05:37:00,24.3,4.5,23.42,WNW,294,0.0,0.0,42,0.00,,---,0.00,VWS V14.00,2013-03-27 12:37:00,
2013-03-27 05:42:00,24.3,4.5,23.42,WNW,294,0.0,0.0,42,0.00,,---,0.00,VWS V14.00,2013-03-27 12:42:00,
2013-03-27 05:47:00,24.3,4.5,23.42,WNW,294,0.0,0.0,42,0.00,,---,0.00,VWS V14.00,2013-03-27 12:47:00,
2013-03-27 05:52:00,24.1,4.3,23.42,WNW,294,0.0,0.0,42,0.00,,---,0.00,VWS V14.00,2013-03-27 12:52:00,
2013-03-27 05:57:00,24.1,4.3,23.42,WNW,294,0.0,0.0,42,0.00,,---,0.00,VWS V14.00,2013-03-27 12:57:00,
2013-03-27 06:02:00,23.9,4.2,23.42,WNW,294,0.0,0.0,42,0.00,,---,0.00,VWS V14.00,2013-03-27 13:02:00,
2013-03-27 06:07:00,23.9,4.2,23.42,WNW,294,0.0,0.0,42,0.00,,---,0.00,VWS V14.00,2013-03-27 13:07:00,
2013-03-27 06:13:00,23.9,4.2,23.42,WNW,294,0.0,0.0,42,0.00,,---,0.00,VWS V14.00,2013-03-27 13:13:00,
2013-03-27 06:18:00,23.9,4.2,23.42,WNW,294,0.0,0.0,42,0.00,,---,0.00,VWS V14.00,2013-03-27 13:18:00,
2013-03-27 06:23:00,23.9,4.2,23.42,WNW,294,0.0,0.0,42,0.00,,---,0.00,VWS V14.00,2013-03-27 13:23:00,
2013-03-27 12:24:00,64.2,35.3,23.45,South,185,4.0,4.9,34,0.00,,---,0.00,VWS V14.00,2013-03-27 19:24:00,
2013-03-27 12:29:00,64.4,34.7,23.45,South,182,4.0,4.0,33,0.00,,---,0.00,VWS V14.00,2013-03-27 19:29:00,
2013-03-27 12:35:00,64.6,34.8,23.45,WNW,284,4.0,5.4,33,0.00,,---,0.00,VWS V14.00,2013-03-27 19:35:00,
2013-03-27 12:40:00,65.1,35.3,23.45,SW,235,2.7,3.6,33,0.00,,---,0.00,VWS V14.00,2013-03-27 19:40:00,
2013-03-27 12:45:00,65.1,35.3,23.45,South,172,3.1,5.8,33,0.00,,---,0.00,VWS V14.00,2013-03-27 19:45:00,
2013-03-27 12:50:00,65.7,35.8,23.45,SSW,202,5.4,5.4,33,0.00,,---,0.00,VWS V14.00,2013-03-27 19:50:00,
2013-03-27 12:55:00,66.0,36.1,23.45,SW,231,6.3,6.3,33,0.00,,---,0.00,VWS V14.00,2013-03-27 19:55:00,
2013-03-27 13:00:00,65.8,36.0,23.42,SSW,206,5.4,5.4,33,0.00,,---,0.00,VWS V14.00,2013-03-27 20:00:00,
2013-03-27 13:05:00,66.4,36.4,23.42,NW,326,3.1,4.0,33,0.00,,---,0.00,VWS V14.00,2013-03-27 20:05:00,
2013-03-27 13:10:00,66.2,36.3,23.42,NNW,335,3.6,5.4,33,0.00,,---,0.00,VWS V14.00,2013-03-27 20:10:00,
2013-03-27 13:15:00,65.8,36.0,23.42,South,191,3.6,3.6,33,0.00,,---,0.00,VWS V14.00,2013-03-27 20:15:00,
2013-03-27 13:20:00,65.7,35.8,23.42,South,188,3.1,5.8,33,0.00,,---,0.00,VWS V14.00,2013-03-27 20:20:00,
2013-03-27 13:26:00,65.1,35.3,23.42,SW,216,10.1,17.0,33,0.00,,---,0.00,VWS V14.00,2013-03-27 20:26:00,
2013-03-27 13:31:00,63.7,34.8,23.42,SW,230,5.4,5.4,34,0.00,,---,0.00,VWS V14.00,2013-03-27 20:31:00,
2013-03-27 13:36:00,63.3,34.5,23.42,SSW,192,3.1,5.8,34,0.00,,---,0.00,VWS V14.00,2013-03-27 20:36:00,
2013-03-27 13:41:00,63.1,34.3,23.42,South,184,4.9,4.9,34,0.00,,---,0.00,VWS V14.00,2013-03-27 20:41:00,
2013-03-27 13:47:00,63.1,34.3,23.42,WSW,247,8.3,10.5,34,0.00,,---,0.00,VWS V14.00,2013-03-27 20:47:00,
2013-03-27 13:52:00,63.0,34.2,23.42,South,191,3.6,3.6,34,0.00,,---,0.00,VWS V14.00,2013-03-27 20:52:00,
2013-03-27 13:57:00,62.8,34.0,23.42,SSE,148,8.3,10.5,34,0.00,,---,0.00,VWS V14.00,2013-03-27 20:57:00,
2013-03-27 14:02:00,62.4,33.7,23.42,SSW,198,4.0,4.0,34,0.00,,---,0.00,VWS V14.00,2013-03-27 21:02:00,
2013-03-27 14:07:00,62.4,33.7,23.42,SE,139,4.0,5.8,34,0.00,,---,0.00,VWS V14.00,2013-03-27 21:07:00,
2013-03-27 14:13:00,62.4,33.7,23.42,WSW,250,4.9,6.7,34,0.00,,---,0.00,VWS V14.00,2013-03-27 21:13:00,
2013-03-27 14:18:00,62.4,33.7,23.42,WNW,287,3.1,4.9,34,0.00,,---,0.00,VWS V14.00,2013-03-27 21:18:00,
2013-03-27 14:23:00,62.4,33.7,23.42,South,178,6.3,6.3,34,0.00,,---,0.00,VWS V14.00,2013-03-27 21:23:00,
2013-03-27 14:28:00,62.2,33.5,23.42,South,171,4.9,5.8,34,0.00,,---,0.00,VWS V14.00,2013-03-27 21:28:00,
2013-03-27 14:33:00,62.2,33.5,23.42,South,189,5.4,5.8,34,0.00,,---,0.00,VWS V14.00,2013-03-27 21:33:00,
2013-03-27 14:38:00,62.4,33.7,23.42,WSW,239,10.5,10.5,34,0.00,,---,0.00,VWS V14.00,2013-03-27 21:38:00,
2013-03-27 14:43:00,62.2,33.5,23.42,SSW,192,3.6,5.8,34,0.00,,---,0.00,VWS V14.00,2013-03-27 21:43:00,
2013-03-27 14:49:00,62.2,33.5,23.42,WSW,258,3.1,4.0,34,0.00,,---,0.00,VWS V14.00,2013-03-27 21:49:00,
2013-03-27 14:54:00,62.4,33.7,23.42,SSW,207,4.9,5.8,34,0.00,,---,0.00,VWS V14.00,2013-03-27 21:54:00,
2013-03-27 14:59:00,62.4,33.7,23.42,West,270,2.7,5.8,34,0.00,,---,0.00,VWS V14.00,2013-03-27 21:59:00,
2013-03-27 15:04:00,62.4,33.7,23.42,WSW,258,3.1,4.9,34,0.00,,---,0.00,VWS V14.00,2013-03-27 22:04:00,
2013-03-27 15:09:00,62.6,33.9,23.42,West,275,4.0,5.4,34,0.00,,---,0.00,VWS V14.00,2013-03-27 22:09:00,
2013-03-27 15:14:00,62.4,33.7,23.42,SW,231,4.0,6.3,34,0.00,,---,0.00,VWS V14.00,2013-03-27 22:14:00,
2013-03-27 15:19:00,62.4,33.7,23.42,SW,234,4.0,6.7,34,0.00,,---,0.00,VWS V14.00,2013-03-27 22:19:00,
2013-03-27 15:24:00,62.4,33.7,23.42,SSW,192,5.4,5.8,34,0.00,,---,0.00,VWS V14.00,2013-03-27 22:24:00,
2013-03-27 15:30:00,62.1,33.4,23.42,SSE,161,3.6,7.6,34,0.00,,---,0.00,VWS V14.00,2013-03-27 22:30:00,
2013-03-27 15:35:00,62.1,33.4,23.42,West,271,10.1,10.1,34,0.00,,---,0.00,VWS V14.00,2013-03-27 22:35:00,
2013-03-27 15:40:00,62.2,33.5,23.42,WSW,253,6.3,6.3,34,0.00,,---,0.00,VWS V14.00,2013-03-27 22:40:00,
2013-03-27 15:45:00,62.1,33.4,23.42,South,181,5.8,5.8,34,0.00,,---,0.00,VWS V14.00,2013-03-27 22:45:00,
2013-03-27 15:50:00,62.4,33.7,23.42,SSW,204,3.6,5.4,34,0.00,,---,0.00,VWS V14.00,2013-03-27 22:50:00,
2013-03-27 15:55:00,62.6,33.9,23.42,West,267,3.1,5.8,34,0.00,,---,0.00,VWS V14.00,2013-03-27 22:55:00,
2013-03-27 16:00:00,62.4,33.7,23.42,SSW,198,5.8,5.8,34,0.00,,---,0.00,VWS V14.00,2013-03-27 23:00:00,
2013-03-27 16:05:00,62.2,33.5,23.42,SW,214,5.4,5.8,34,0.00,,---,0.00,VWS V14.00,2013-03-27 23:05:00,
2013-03-27 16:10:00,62.4,33.7,23.42,SSE,165,4.0,7.6,34,0.00,,---,0.00,VWS V14.00,2013-03-27 23:10:00,
2013-03-27 16:15:00,62.6,33.9,23.42,SSW,195,4.9,7.6,34,0.00,,---,0.00,VWS V14.00,2013-03-27 23:15:00,
2013-03-27 16:20:00,62.2,33.5,23.42,SW,226,3.1,3.1,34,0.00,,---,0.00,VWS V14.00,2013-03-27 23:20:00,
2013-03-27 16:25:00,62.2,33.5,23.42,SW,215,3.1,5.8,34,0.00,,---,0.00,VWS V14.00,2013-03-27 23:25:00,
2013-03-27 16:31:00,61.7,33.1,23.42,SSW,195,3.1,5.8,34,0.00,,---,0.00,VWS V14.00,2013-03-27 23:31:00,
2013-03-27 16:36:00,61.3,32.8,23.42,South,185,5.4,6.3,34,0.00,,---,0.00,VWS V14.00,2013-03-27 23:36:00,
2013-03-27 16:41:00,60.6,32.8,23.42,SSW,197,5.8,5.8,35,0.00,,---,0.00,VWS V14.00,2013-03-27 23:41:00,
2013-03-27 16:46:00,60.4,32.7,23.42,SSW,196,4.0,4.9,35,0.00,,---,0.00,VWS V14.00,2013-03-27 23:46:00,
2013-03-27 16:51:00,60.1,32.4,23.42,SE,144,5.4,5.4,35,0.00,,---,0.00,VWS V14.00,2013-03-27 23:51:00,
2013-03-27 16:56:00,59.5,31.9,23.42,SSW,194,8.7,9.6,35,0.00,,---,0.00,VWS V14.00,2013-03-27 23:56:00,
2013-03-27 17:01:00,59.5,31.9,23.42,SW,220,3.6,3.6,35,0.00,,---,0.00,VWS V14.00,2013-03-28 00:01:00,
2013-03-27 17:07:00,59.7,32.0,23.42,South,179,4.0,5.4,35,0.00,,---,0.00,VWS V14.00,2013-03-28 00:07:00,
2013-03-27 17:12:00,59.7,32.0,23.42,SSW,202,2.2,4.9,35,0.00,,---,0.00,VWS V14.00,2013-03-28 00:12:00,
2013-03-27 17:17:00,59.7,32.0,23.45,West,265,2.7,8.3,35,0.00,,---,0.00,VWS V14.00,2013-03-28 00:17:00,
2013-03-27 17:22:00,59.9,32.2,23.45,SSE,155,3.6,4.9,35,0.00,,---,0.00,VWS V14.00,2013-03-28 00:22:00,
2013-03-27 17:27:00,59.9,32.2,23.45,SSW,195,3.6,3.6,35,0.00,,---,0.00,VWS V14.00,2013-03-28 00:27:00,
2013-03-27 17:32:00,59.7,32.0,23.45,SSE,161,4.0,5.8,35,0.00,,---,0.00,VWS V14.00,2013-03-28 00:32:00,
2013-03-27 17:38:00,59.4,31.7,23.45,WSW,240,3.6,4.0,35,0.00,,---,0.00,VWS V14.00,2013-03-28 00:38:00,
2013-03-27 17:43:00,59.2,31.6,23.45,South,182,3.6,4.0,35,0.00,,---,0.00,VWS V14.00,2013-03-28 00:43:00,
2013-03-27 17:48:00,58.5,30.9,23.45,West,277,4.0,4.0,35,0.00,,---,0.00,VWS V14.00,2013-03-28 00:48:00,
2013-03-27 17:53:00,57.9,30.5,23.45,WSW,250,3.1,4.0,35,0.00,,---,0.00,VWS V14.00,2013-03-28 00:53:00,
2013-03-27 17:58:00,57.4,30.0,23.45,SW,215,4.0,5.4,35,0.00,,---,0.00,VWS V14.00,2013-03-28 00:58:00,
2013-03-27 18:03:00,56.8,29.5,23.45,SSW,194,0.0,4.0,35,0.00,,---,0.00,VWS V14.00,2013-03-28 01:03:00,
2013-03-27 18:09:00,56.5,29.2,23.45,WSW,244,3.1,3.6,35,0.00,,---,0.00,VWS V14.00,2013-03-28 01:09:00,
2013-03-27 18:14:00,56.1,28.9,23.45,SSW,212,3.6,5.4,35,0.00,,---,0.00,VWS V14.00,2013-03-28 01:14:00,
2013-03-27 18:19:00,55.6,28.4,23.45,SW,229,2.2,3.6,35,0.00,,---,0.00,VWS V14.00,2013-03-28 01:19:00,
2013-03-27 18:24:00,54.9,28.4,23.45,SSW,206,4.0,5.8,36,0.00,,---,0.00,VWS V14.00,2013-03-28 01:24:00,
2013-03-27 18:29:00,54.0,27.6,23.45,SW,233,0.0,0.0,36,0.00,,---,0.00,VWS V14.00,2013-03-28 01:29:00,
2013-03-27 18:34:00,53.2,27.0,23.45,West,280,0.0,0.0,36,0.00,,---,0.00,VWS V14.00,2013-03-28 01:34:00,
2013-03-27 18:39:00,52.7,26.5,23.45,West,265,0.0,0.0,36,0.00,,---,0.00,VWS V14.00,2013-03-28 01:39:00,
2013-03-27 18:45:00,51.8,25.7,23.45,West,264,0.0,0.0,36,0.00,,---,0.00,VWS V14.00,2013-03-28 01:45:00,
2013-03-27 18:50:00,51.3,25.9,23.45,West,264,0.0,0.0,37,0.00,,---,0.00,VWS V14.00,2013-03-28 01:50:00,
2013-03-27 18:55:00,50.5,25.2,23.45,West,264,0.0,0.0,37,0.00,,---,0.00,VWS V14.00,2013-03-28 01:55:00,
2013-03-27 19:00:00,50.0,24.8,23.45,West,264,0.0,0.0,37,0.00,,---,0.00,VWS V14.00,2013-03-28 02:00:00,
2013-03-27 19:05:00,49.5,24.3,23.45,West,264,0.0,0.0,37,0.00,,---,0.00,VWS V14.00,2013-03-28 02:05:00,
2013-03-27 19:11:00,48.9,23.8,23.45,West,264,0.0,0.0,37,0.00,,---,0.00,VWS V14.00,2013-03-28 02:11:00,
2013-03-27 19:16:00,48.6,23.5,23.45,WSW,249,0.0,2.2,37,0.00,,---,0.00,VWS V14.00,2013-03-28 02:16:00,
2013-03-27 19:22:00,48.2,23.2,23.45,West,265,0.0,0.0,37,0.00,,---,0.00,VWS V14.00,2013-03-28 02:22:00,
2013-03-27 19:27:00,48.0,23.0,23.45,West,265,0.0,0.0,37,0.00,,---,0.00,VWS V14.00,2013-03-28 02:27:00,
2013-03-27 19:32:00,47.8,22.9,23.45,West,265,0.0,0.0,37,0.00,,---,0.00,VWS V14.00,2013-03-28 02:32:00,
2013-03-27 19:37:00,47.7,22.7,23.45,SW,236,0.0,0.0,37,0.00,,---,0.00,VWS V14.00,2013-03-28 02:37:00,
2013-03-27 19:42:00,47.5,22.5,23.45,SW,232,0.0,0.0,37,0.00,,---,0.00,VWS V14.00,2013-03-28 02:42:00,
2013-03-27 19:47:00,47.5,22.5,23.45,SW,236,0.0,0.0,37,0.00,,---,0.00,VWS V14.00,2013-03-28 02:47:00,
2013-03-27 19:52:00,47.3,22.4,23.45,West,273,0.0,0.0,37,0.00,,---,0.00,VWS V14.00,2013-03-28 02:52:00,
2013-03-27 19:57:00,47.1,22.2,23.45,West,268,0.0,0.0,37,0.00,,---,0.00,VWS V14.00,2013-03-28 02:57:00,
2013-03-27 20:02:00,46.6,21.7,23.45,SSW,211,0.0,0.0,37,0.00,,---,0.00,VWS V14.00,2013-03-28 03:02:00,
2013-03-27 20:08:00,46.2,22.0,23.45,SSW,211,0.0,0.0,38,0.00,,---,0.00,VWS V14.00,2013-03-28 03:08:00,
2013-03-27 20:13:00,45.9,21.7,23.45,West,267,0.0,0.0,38,0.00,,---,0.00,VWS V14.00,2013-03-28 03:13:00,
2013-03-27 20:18:00,45.5,21.4,23.45,WSW,258,0.0,0.0,38,0.00,,---,0.00,VWS V14.00,2013-03-28 03:18:00,
2013-03-27 20:23:00,45.1,21.1,23.45,WSW,258,0.0,0.0,38,0.00,,---,0.00,VWS V14.00,2013-03-28 03:23:00,
2013-03-27 20:28:00,44.8,20.7,23.45,WSW,258,0.0,0.0,38,0.00,,---,0.00,VWS V14.00,2013-03-28 03:28:00,
2013-03-27 20:34:00,44.4,20.4,23.45,WSW,258,0.0,0.0,38,0.00,,---,0.00,VWS V14.00,2013-03-28 03:34:00,
2013-03-27 20:39:00,44.1,20.1,23.45,WSW,258,0.0,0.0,38,0.00,,---,0.00,VWS V14.00,2013-03-28 03:39:00,
2013-03-27 20:44:00,43.5,19.6,23.45,WSW,258,0.0,0.0,38,0.00,,---,0.00,VWS V14.00,2013-03-28 03:44:00,
2013-03-27 20:49:00,43.0,19.1,23.45,WSW,258,0.0,0.0,38,0.00,,---,0.00,VWS V14.00,2013-03-28 03:49:00,
2013-03-27 20:54:00,42.4,19.2,23.45,WSW,258,0.0,0.0,39,0.00,,---,0.00,VWS V14.00,2013-03-28 03:54:00,
2013-03-27 20:59:00,42.1,18.9,23.48,WSW,258,0.0,0.0,39,0.00,,---,0.00,VWS V14.00,2013-03-28 03:59:00,
2013-03-27 21:00:00,41.9,18.8,23.48,WSW,258,0.0,0.0,39,0.00,,---,0.00,VWS V14.00,2013-03-28 04:00:00,
2013-03-27 21:02:00,41.7,18.6,23.48,WSW,258,0.0,0.0,39,0.00,,---,0.00,VWS V14.00,2013-03-28 04:02:00,
2013-03-27 21:03:00,41.5,18.4,23.48,WSW,258,0.0,0.0,39,0.00,,---,0.00,VWS V14.00,2013-03-28 04:03:00,
2013-03-27 21:08:00,41.2,18.1,23.48,WSW,258,0.0,0.0,39,0.00,,---,0.00,VWS V14.00,2013-03-28 04:08:00,
2013-03-27 21:13:00,40.6,17.6,23.48,WSW,258,0.0,0.0,39,0.00,,---,0.00,VWS V14.00,2013-03-28 04:13:00,
2013-03-27 21:18:00,40.3,17.3,23.48,WSW,258,0.0,0.0,39,0.00,,---,0.00,VWS V14.00,2013-03-28 04:18:00,
2013-03-27 21:24:00,39.7,16.8,23.48,WSW,258,0.0,0.0,39,0.00,,---,0.00,VWS V14.00,2013-03-28 04:24:00,
2013-03-27 21:29:00,39.4,16.5,23.48,WSW,258,0.0,0.0,39,0.00,,---,0.00,VWS V14.00,2013-03-28 04:29:00,
2013-03-27 21:34:00,38.8,16.0,23.48,WSW,258,0.0,0.0,39,0.00,,---,0.00,VWS V14.00,2013-03-28 04:34:00,
2013-03-27 21:39:00,38.5,15.7,23.48,WSW,258,0.0,0.0,39,0.00,,---,0.00,VWS V14.00,2013-03-28 04:39:00,
2013-03-27 21:44:00,38.1,15.4,23.48,WSW,258,0.0,0.0,39,0.00,,---,0.00,VWS V14.00,2013-03-28 04:44:00,
2013-03-27 21:50:00,37.8,15.0,23.48,WSW,258,0.0,0.0,39,0.00,,---,0.00,VWS V14.00,2013-03-28 04:50:00,
2013-03-27 21:55:00,37.2,15.1,23.48,WSW,258,0.0,0.0,40,0.00,,---,0.00,VWS V14.00,2013-03-28 04:55:00,
2013-03-27 22:01:00,36.9,14.8,23.48,WSW,258,0.0,0.0,40,0.00,,---,0.00,VWS V14.00,2013-03-28 05:01:00,
2013-03-27 22:06:00,36.5,14.5,23.48,WSW,258,0.0,0.0,40,0.00,,---,0.00,VWS V14.00,2013-03-28 05:06:00,
2013-03-27 22:11:00,36.3,14.3,23.48,WSW,258,0.0,0.0,40,0.00,,---,0.00,VWS V14.00,2013-03-28 05:11:00,
2013-03-27 22:16:00,36.0,14.0,23.48,WSW,258,0.0,0.0,40,0.00,,---,0.00,VWS V14.00,2013-03-28 05:16:00,
2013-03-27 22:21:00,35.6,13.7,23.48,WSW,258,0.0,0.0,40,0.00,,---,0.00,VWS V14.00,2013-03-28 05:21:00,
2013-03-27 22:26:00,35.2,13.4,23.48,WSW,258,0.0,0.0,40,0.00,,---,0.00,VWS V14.00,2013-03-28 05:26:00,
2013-03-27 22:32:00,34.9,13.0,23.48,WSW,258,0.0,0.0,40,0.00,,---,0.00,VWS V14.00,2013-03-28 05:32:00,
2013-03-27 22:37:00,34.7,12.9,23.48,WSW,258,0.0,0.0,40,0.00,,---,0.00,VWS V14.00,2013-03-28 05:37:00,
2013-03-27 22:42:00,34.5,12.7,23.48,WSW,258,0.0,0.0,40,0.00,,---,0.00,VWS V14.00,2013-03-28 05:42:00,
2013-03-27 22:47:00,34.3,12.5,23.48,WSW,258,0.0,0.0,40,0.00,,---,0.00,VWS V14.00,2013-03-28 05:47:00,
2013-03-27 22:52:00,34.0,12.2,23.48,WSW,258,0.0,0.0,40,0.00,,---,0.00,VWS V14.00,2013-03-28 05:52:00,
2013-03-27 22:57:00,33.8,12.1,23.48,WSW,258,0.0,0.0,40,0.00,,---,0.00,VWS V14.00,2013-03-28 05:57:00,
2013-03-27 23:02:00,33.6,12.4,23.48,WSW,258,0.0,0.0,41,0.00,,---,0.00,VWS V14.00,2013-03-28 06:02:00,
2013-03-27 23:07:00,33.3,12.1,23.48,WSW,258,0.0,0.0,41,0.00,,---,0.00,VWS V14.00,2013-03-28 06:07:00,
2013-03-27 23:13:00,33.1,12.0,23.45,WSW,258,0.0,0.0,41,0.00,,---,0.00,VWS V14.00,2013-03-28 06:13:00,
2013-03-27 23:18:00,32.9,11.8,23.45,WSW,258,0.0,0.0,41,0.00,,---,0.00,VWS V14.00,2013-03-28 06:18:00,
2013-03-27 23:23:00,32.7,11.6,23.45,WSW,258,0.0,0.0,41,0.00,,---,0.00,VWS V14.00,2013-03-28 06:23:00,
2013-03-27 23:28:00,32.5,11.5,23.48,WSW,258,0.0,0.0,41,0.00,,---,0.00,VWS V14.00,2013-03-28 06:28:00,
2013-03-27 23:33:00,32.4,11.3,23.48,WSW,258,0.0,0.0,41,0.00,,---,0.00,VWS V14.00,2013-03-28 06:33:00,
2013-03-27 23:39:00,32.2,11.1,23.48,WSW,258,0.0,0.0,41,0.00,,---,0.00,VWS V14.00,2013-03-28 06:39:00,
2013-03-27 23:44:00,32.0,11.0,23.48,WSW,258,0.0,0.0,41,0.00,,---,0.00,VWS V14.00,2013-03-28 06:44:00,
2013-03-27 23:49:00,31.8,10.8,23.48,WSW,258,0.0,0.0,41,0.00,,---,0.00,VWS V14.00,2013-03-28 06:49:00,
2013-03-27 23:54:00,31.5,10.5,23.48,WSW,258,0.0,0.0,41,0.00,,---,0.00,VWS V14.00,2013-03-28 06:54:00,
2013-03-27 23:59:00,31.5,10.5,23.48,WSW,258,0.0,0.0,41,0.00,,---,0.00,VWS V14.00,2013-03-28 06:59:00,